Time;durP1;ratioP1;P1;durP2;ratioP2;P2;SDS_P1;SDS_P2;PMS_P1;PMS_P2;Temp;Humidity;BMP_temperature;BMP_pressure;BME280_temperature;BME280_humidity;BME280_pressure;Samples;Min_cycle;Max_cycle;Signal;HPM_P1;HPM_P2
2023/11/03 00:00:50;;;;;;;5.03;1.80;;;4.70;32.80;;;;;;5013453;28;20504;-70
2023/11/03 00:03:15;;;;;;;3.97;2.47;;;4.70;33.30;;;;;;5013931;28;20675;-70
2023/11/03 00:05:41;;;;;;;5.90;3.33;;;4.70;33.50;;;;;;5013790;28;20182;-70
2023/11/03 00:08:08;;;;;;;5.00;2.57;;;4.60;33.90;;;;;;5013661;28;20174;-70
2023/11/03 00:10:37;;;;;;;4.45;2.60;;;4.60;35.20;;;;;;5013268;28;20206;-70
2023/11/03 00:13:05;;;;;;;7.90;2.75;;;4.60;35.30;;;;;;5013589;28;20285;-70
2023/11/03 00:15:33;;;;;;;4.57;2.92;;;4.60;35.80;;;;;;5012198;28;20178;-70
2023/11/03 00:17:59;;;;;;;6.20;2.90;;;4.60;35.80;;;;;;5013501;28;20174;-70
2023/11/03 00:20:24;;;;;;;4.70;2.73;;;4.60;36.40;;;;;;5013169;28;20170;-70
2023/11/03 00:22:50;;;;;;;4.70;2.90;;;4.50;36.30;;;;;;5012141;28;20175;-70
2023/11/03 00:25:16;;;;;;;5.53;2.30;;;4.50;36.80;;;;;;5013409;28;20175;-70
2023/11/03 00:27:42;;;;;;;4.60;2.83;;;4.50;36.90;;;;;;5013358;28;20188;-70
2023/11/03 00:30:09;;;;;;;5.70;2.27;;;4.50;36.30;;;;;;5012123;28;20445;-70
2023/11/03 00:32:35;;;;;;;3.50;2.08;;;4.50;36.60;;;;;;5013058;28;20805;-70
2023/11/03 00:35:01;;;;;;;4.37;1.70;;;4.50;36.30;;;;;;5011751;28;20177;-70
2023/11/03 00:37:27;;;;;;;7.65;2.28;;;4.50;35.60;;;;;;5013059;28;20234;-70
2023/11/03 00:39:53;;;;;;;5.68;2.42;;;4.60;35.50;;;;;;5013303;28;20178;-70
2023/11/03 00:42:19;;;;;;;3.93;1.90;;;4.60;34.20;;;;;;5012827;28;20314;-70
2023/11/03 00:44:44;;;;;;;4.00;1.60;;;4.60;34.10;;;;;;5012990;28;20422;-70
2023/11/03 00:47:10;;;;;;;3.93;1.50;;;4.60;32.80;;;;;;5013078;28;20556;-70
2023/11/03 00:49:37;;;;;;;6.13;2.07;;;4.60;33.60;;;;;;5012722;28;20655;-70
2023/11/03 00:52:04;;;;;;;4.72;1.70;;;4.60;33.60;;;;;;5012574;28;20468;-70
2023/11/03 00:54:30;;;;;;;5.57;1.55;;;4.60;32.60;;;;;;5012791;28;20179;-70
2023/11/03 00:56:55;;;;;;;5.87;2.40;;;4.60;32.90;;;;;;5012596;28;20217;-70
2023/11/03 00:59:21;;;;;;;5.27;2.37;;;4.50;32.50;;;;;;5012771;28;20169;-70
2023/11/03 01:01:47;;;;;;;3.20;1.50;;;4.50;33.40;;;;;;5012398;28;20422;-70
2023/11/03 01:04:12;;;;;;;7.40;2.10;;;4.50;31.40;;;;;;5012493;28;20179;-70
2023/11/03 01:06:39;;;;;;;4.07;1.73;;;4.40;32.50;;;;;;5012598;28;20193;-70
2023/11/03 01:09:04;;;;;;;9.20;1.95;;;4.30;32.40;;;;;;5012569;28;20528;-70
2023/11/03 01:11:30;;;;;;;4.97;2.43;;;4.30;32.70;;;;;;5028516;23;20226;-68
2023/11/03 01:13:56;;;;;;;3.07;1.57;;;4.30;33.50;;;;;;5013230;28;20181;-68
2023/11/03 01:16:25;;;;;;;4.77;1.70;;;4.30;33.90;;;;;;5011808;28;20625;-68
2023/11/03 01:18:51;;;;;;;2.23;1.37;;;4.30;33.50;;;;;;5013121;28;20248;-68
2023/11/03 01:21:18;;;;;;;13.38;2.15;;;4.30;34.20;;;;;;5007494;28;20429;-68
2023/11/03 01:23:47;;;;;;;4.63;1.52;;;4.30;33.10;;;;;;4992112;28;20617;-68
2023/11/03 01:26:13;;;;;;;3.83;1.83;;;4.20;33.70;;;;;;4992095;28;20660;-68
2023/11/03 01:28:39;;;;;;;4.00;2.65;;;4.30;33.60;;;;;;4992020;28;20922;-68
2023/11/03 01:31:05;;;;;;;6.70;1.73;;;4.30;33.40;;;;;;4991561;28;20206;-68
2023/11/03 01:33:32;;;;;;;4.35;2.03;;;4.20;33.10;;;;;;4991844;28;20788;-69
2023/11/03 01:35:57;;;;;;;7.78;2.25;;;4.20;33.40;;;;;;4993101;28;20261;-69
2023/11/03 01:38:24;;;;;;;3.67;1.50;;;4.20;32.80;;;;;;4993852;28;20175;-69
2023/11/03 01:40:49;;;;;;;2.53;1.70;;;4.20;33.20;;;;;;4992479;28;20230;-69
2023/11/03 01:43:15;;;;;;;4.83;1.80;;;4.20;33.70;;;;;;4994258;28;20232;-68
2023/11/03 01:45:40;;;;;;;2.97;1.47;;;4.20;33.90;;;;;;4992354;28;20187;-68
2023/11/03 01:48:07;;;;;;;6.70;1.60;;;4.20;33.90;;;;;;4992235;28;20201;-68
2023/11/03 01:50:35;;;;;;;2.70;1.50;;;4.20;33.50;;;;;;4991256;28;20181;-68
2023/11/03 01:53:02;;;;;;;2.65;1.35;;;4.30;33.70;;;;;;4992775;28;20226;-68
2023/11/03 01:55:28;;;;;;;3.25;1.85;;;4.30;33.80;;;;;;4991673;28;20187;-68
2023/11/03 01:57:55;;;;;;;3.05;1.25;;;4.30;33.30;;;;;;4991553;28;20211;-68
2023/11/03 02:00:22;;;;;;;3.20;1.53;;;4.40;33.30;;;;;;4991481;28;20575;-68
2023/11/03 02:02:49;;;;;;;4.65;2.65;;;4.40;32.50;;;;;;4992844;28;20810;-69
2023/11/03 02:05:15;;;;;;;5.10;1.88;;;4.40;32.50;;;;;;4991796;28;20236;-68
2023/11/03 02:07:41;;;;;;;2.92;1.50;;;4.50;32.20;;;;;;4991832;28;20672;-68
2023/11/03 02:10:07;;;;;;;2.70;1.40;;;4.40;31.40;;;;;;4993230;28;20197;-68
2023/11/03 02:12:34;;;;;;;4.53;1.42;;;4.40;31.80;;;;;;4994331;28;20221;-69
2023/11/03 02:14:59;;;;;;;2.47;1.20;;;4.40;31.80;;;;;;4997584;28;20183;-69
2023/11/03 02:17:26;;;;;;;3.00;1.73;;;4.30;32.40;;;;;;5014152;28;20691;-69
2023/11/03 02:19:52;;;;;;;6.00;1.20;;;4.30;32.40;;;;;;4994169;28;20518;-69
2023/11/03 02:22:17;;;;;;;3.40;1.50;;;4.30;32.40;;;;;;4992307;28;20978;-69
2023/11/03 02:24:43;;;;;;;2.50;1.53;;;4.30;32.40;;;;;;4992399;28;20181;-69
2023/11/03 02:27:09;;;;;;;2.43;1.43;;;4.30;32.80;;;;;;4992437;28;20182;-69
2023/11/03 02:29:35;;;;;;;3.83;1.97;;;4.40;33.70;;;;;;4990946;28;20186;-69
2023/11/03 02:32:00;;;;;;;7.10;1.87;;;4.40;32.50;;;;;;4990978;28;20449;-69
2023/11/03 02:34:26;;;;;;;12.23;1.90;;;4.50;32.50;;;;;;4991188;28;20190;-69
2023/11/03 02:36:52;;;;;;;3.63;1.83;;;4.50;32.50;;;;;;4991296;28;20672;-69
2023/11/03 02:39:18;;;;;;;4.27;1.67;;;4.60;32.10;;;;;;4991206;28;20711;-69
2023/11/03 02:41:44;;;;;;;7.68;2.00;;;4.60;32.50;;;;;;4990651;28;20529;-69
2023/11/03 02:44:09;;;;;;;4.33;2.07;;;4.60;32.30;;;;;;4992223;28;20294;-69
2023/11/03 02:46:35;;;;;;;5.80;1.73;;;4.50;30.90;;;;;;4990923;28;20670;-69
2023/11/03 02:49:00;;;;;;;2.60;1.40;;;4.50;30.50;;;;;;4992198;28;20205;-69
2023/11/03 02:51:26;;;;;;;3.40;2.17;;;4.60;29.80;;;;;;4990688;28;20211;-69
2023/11/03 02:53:52;;;;;;;3.40;1.70;;;4.60;30.80;;;;;;4993087;28;20182;-69
2023/11/03 02:56:24;;;;;;;2.97;2.00;;;4.60;31.40;;;;;;4996224;28;20686;-69
2023/11/03 02:58:51;;;;;;;4.35;1.70;;;4.60;30.70;;;;;;4994471;28;20515;-69
2023/11/03 03:01:17;;;;;;;4.10;2.17;;;4.60;29.40;;;;;;4994300;28;20194;-69
2023/11/03 03:03:42;;;;;;;2.50;1.37;;;4.60;29.20;;;;;;4994708;28;20273;-69
2023/11/03 03:06:09;;;;;;;2.73;1.90;;;4.60;28.70;;;;;;4995810;28;20661;-69
2023/11/03 03:08:34;;;;;;;3.27;2.63;;;4.60;28.20;;;;;;4995728;28;20489;-69
2023/11/03 03:11:03;;;;;;;9.10;2.17;;;4.60;28.10;;;;;;4993930;28;20442;-69
2023/11/03 03:13:28;;;;;;;4.30;1.90;;;4.60;28.10;;;;;;4995728;28;20186;-69
2023/11/03 03:15:54;;;;;;;3.37;1.63;;;4.60;28.10;;;;;;4994255;28;20789;-69
2023/11/03 03:18:19;;;;;;;2.90;1.90;;;4.60;28.10;;;;;;4995641;28;20609;-69
2023/11/03 03:20:45;;;;;;;3.40;2.10;;;4.60;28.70;;;;;;4993803;28;20656;-69
2023/11/03 03:23:10;;;;;;;3.37;2.00;;;4.60;28.50;;;;;;4994169;28;20180;-69
2023/11/03 03:25:36;;;;;;;2.83;1.83;;;4.60;28.10;;;;;;4995314;28;20637;-69
2023/11/03 03:28:01;;;;;;;2.47;1.80;;;4.60;28.10;;;;;;4993894;28;20282;-69
2023/11/03 03:30:27;;;;;;;4.73;2.30;;;4.70;27.50;;;;;;4995002;28;20257;-70
2023/11/03 03:32:52;;;;;;;2.13;1.27;;;4.70;27.20;;;;;;4993848;28;20200;-69
2023/11/03 03:35:18;;;;;;;2.93;1.70;;;4.70;26.50;;;;;;4995537;28;20206;-69
2023/11/03 03:37:44;;;;;;;3.40;1.57;;;4.80;26.30;;;;;;4993747;28;20215;-69
2023/11/03 03:40:12;;;;;;;2.60;1.53;;;4.80;26.20;;;;;;4993707;28;20174;-69
2023/11/03 03:42:37;;;;;;;2.20;1.33;;;4.80;26.10;;;;;;4994799;28;20383;-69
2023/11/03 03:45:04;;;;;;;3.80;1.70;;;4.80;26.20;;;;;;4993749;28;20585;-69
2023/11/03 03:47:29;;;;;;;4.40;1.87;;;4.80;25.80;;;;;;4995076;28;20191;-69
2023/11/03 03:49:55;;;;;;;3.57;1.70;;;4.80;25.60;;;;;;4995007;28;20796;-69
2023/11/03 03:52:21;;;;;;;3.27;1.70;;;4.80;25.60;;;;;;4993705;28;20207;-68
2023/11/03 03:54:46;;;;;;;2.27;1.20;;;4.80;26.00;;;;;;4993671;28;20587;-68
2023/11/03 03:57:12;;;;;;;5.23;2.37;;;4.70;26.30;;;;;;4994679;28;20335;-68
2023/11/03 03:59:38;;;;;;;4.00;1.90;;;4.80;26.80;;;;;;4993662;28;20636;-69
2023/11/03 04:02:04;;;;;;;2.30;1.33;;;4.80;25.80;;;;;;4993205;28;20198;-68
2023/11/03 04:04:29;;;;;;;3.93;1.60;;;4.70;25.90;;;;;;4992350;28;20266;-68
2023/11/03 04:06:55;;;;;;;4.93;2.20;;;4.70;27.00;;;;;;4994595;28;20409;-68
2023/11/03 04:09:21;;;;;;;4.65;1.88;;;4.70;26.50;;;;;;4994454;28;20179;-68
2023/11/03 04:11:47;;;;;;;2.20;1.63;;;4.70;26.10;;;;;;4993685;28;20554;-68
2023/11/03 04:14:12;;;;;;;2.57;1.50;;;4.70;26.40;;;;;;4992117;28;20220;-68
2023/11/03 04:16:38;;;;;;;2.80;1.73;;;4.70;26.30;;;;;;4992009;28;20215;-68
2023/11/03 04:19:03;;;;;;;4.77;1.40;;;4.70;26.50;;;;;;4992043;28;20557;-68
2023/11/03 04:21:29;;;;;;;3.13;1.67;;;4.70;27.20;;;;;;4993075;28;20722;-68
2023/11/03 04:23:55;;;;;;;2.60;1.40;;;4.70;27.40;;;;;;4991908;28;20190;-68
2023/11/03 04:26:22;;;;;;;8.17;2.37;;;4.70;26.70;;;;;;4992008;28;20187;-68
2023/11/03 04:28:47;;;;;;;3.47;1.80;;;4.70;26.90;;;;;;4991863;28;20513;-68
2023/11/03 04:31:13;;;;;;;2.13;1.20;;;4.70;27.10;;;;;;4991840;28;20620;-68
2023/11/03 04:33:39;;;;;;;2.30;1.20;;;4.80;27.80;;;;;;4991887;28;20180;-69
2023/11/03 04:36:05;;;;;;;2.80;1.57;;;4.80;26.70;;;;;;4993201;28;20206;-68
2023/11/03 04:38:30;;;;;;;3.05;1.55;;;4.90;27.00;;;;;;4993013;28;20183;-68
2023/11/03 04:40:56;;;;;;;3.10;1.83;;;4.90;26.40;;;;;;4991402;28;20187;-68
2023/11/03 04:43:21;;;;;;;3.00;2.40;;;5.00;26.40;;;;;;5007908;28;20606;-68
2023/11/03 04:45:47;;;;;;;5.10;1.90;;;5.00;26.30;;;;;;4991889;28;20226;-68
2023/11/03 04:48:13;;;;;;;5.07;1.53;;;5.10;26.60;;;;;;4992955;28;20184;-68
2023/11/03 04:50:38;;;;;;;2.00;1.20;;;5.10;25.00;;;;;;4992618;28;20685;-68
2023/11/03 04:53:04;;;;;;;2.83;1.30;;;5.10;25.00;;;;;;4991403;28;20230;-68
2023/11/03 04:55:30;;;;;;;3.13;1.77;;;5.20;24.40;;;;;;4992847;28;20176;-68
2023/11/03 04:58:00;;;;;;;2.47;1.43;;;5.20;24.40;;;;;;4991502;28;20208;-68
2023/11/03 05:00:25;;;;;;;2.70;1.60;;;5.30;24.50;;;;;;4991455;28;20183;-68
2023/11/03 05:02:52;;;;;;;2.73;1.67;;;5.40;23.40;;;;;;4991389;28;20442;-68
2023/11/03 05:05:18;;;;;;;4.30;1.47;;;5.40;23.60;;;;;;4992660;28;20207;-68
2023/11/03 05:07:44;;;;;;;2.70;1.47;;;5.50;22.60;;;;;;4992563;28;20415;-68
2023/11/03 05:10:10;;;;;;;6.00;1.90;;;5.50;21.80;;;;;;4991051;28;20186;-68
2023/11/03 05:12:36;;;;;;;2.20;1.00;;;5.60;21.80;;;;;;4941254;28;1142034;-68
2023/11/03 05:15:03;;;;;;;2.37;1.43;;;5.60;21.40;;;;;;4990178;28;20188;-68
2023/11/03 05:17:28;;;;;;;2.97;1.43;;;5.60;21.70;;;;;;4992908;28;20463;-68
2023/11/03 05:19:54;;;;;;;2.80;1.47;;;5.70;20.60;;;;;;4991732;28;20438;-68
2023/11/03 05:22:20;;;;;;;2.90;1.43;;;5.70;20.60;;;;;;4992944;28;20254;-68
2023/11/03 05:24:46;;;;;;;2.30;1.03;;;5.80;20.70;;;;;;4993047;28;20608;-68
2023/11/03 05:27:13;;;;;;;3.30;1.47;;;5.80;20.10;;;;;;4993147;28;20176;-68
2023/11/03 05:29:40;;;;;;;3.63;1.70;;;5.80;20.20;;;;;;4991738;28;20448;-69
2023/11/03 05:32:06;;;;;;;6.10;1.73;;;5.80;19.70;;;;;;4991389;28;20486;-68
2023/11/03 05:34:34;;;;;;;3.03;1.50;;;5.90;19.90;;;;;;4993038;28;20416;-68
2023/11/03 05:36:59;;;;;;;9.53;1.90;;;6.00;19.10;;;;;;4992789;28;20550;-68
2023/11/03 05:39:25;;;;;;;3.43;1.43;;;6.00;19.00;;;;;;4992828;28;20562;-68
2023/11/03 05:41:51;;;;;;;7.27;1.40;;;6.00;19.00;;;;;;4991438;28;20223;-68
2023/11/03 05:44:17;;;;;;;6.23;1.90;;;6.10;18.80;;;;;;4991476;28;20184;-68
2023/11/03 05:46:43;;;;;;;3.33;1.60;;;6.10;18.10;;;;;;4992906;28;20935;-68
2023/11/03 05:49:08;;;;;;;4.20;1.70;;;6.10;19.20;;;;;;4991455;28;20624;-68
2023/11/03 05:51:34;;;;;;;3.67;1.60;;;6.20;18.50;;;;;;4990994;28;20543;-68
2023/11/03 05:53:59;;;;;;;2.90;1.30;;;6.20;17.80;;;;;;4992579;28;20224;-69
2023/11/03 05:56:25;;;;;;;4.70;1.67;;;6.20;17.50;;;;;;4991370;28;20554;-68
2023/11/03 05:58:51;;;;;;;5.67;1.50;;;6.30;17.60;;;;;;4991287;28;20187;-68
2023/11/03 06:01:18;;;;;;;5.93;1.37;;;6.30;16.80;;;;;;4992381;28;20344;-68
2023/11/03 06:03:44;;;;;;;2.77;1.80;;;6.40;16.40;;;;;;4991433;28;20456;-68
2023/11/03 06:06:09;;;;;;;11.20;2.70;;;6.40;15.40;;;;;;4991222;28;20942;-68
2023/11/03 06:08:35;;;;;;;3.60;1.63;;;6.40;15.10;;;;;;4991204;28;20252;-68
2023/11/03 06:11:00;;;;;;;3.40;1.63;;;6.50;15.40;;;;;;4992102;28;20246;-68
2023/11/03 06:13:26;;;;;;;3.57;1.73;;;6.50;16.00;;;;;;4992907;28;20264;-68
2023/11/03 06:15:52;;;;;;;4.63;1.70;;;6.50;16.50;;;;;;4991363;28;20212;-68
2023/11/03 06:18:18;;;;;;;2.97;1.80;;;6.50;16.20;;;;;;4991398;28;20190;-68
2023/11/03 06:20:43;;;;;;;2.50;1.60;;;6.50;16.40;;;;;;4991132;28;20200;-68
2023/11/03 06:23:09;;;;;;;2.80;1.90;;;6.50;16.30;;;;;;4991078;28;20428;-68
2023/11/03 06:25:35;;;;;;;3.53;1.50;;;6.50;16.40;;;;;;4992600;28;20718;-68
2023/11/03 06:28:00;;;;;;;3.50;1.83;;;6.50;16.80;;;;;;4993317;28;20514;-68
2023/11/03 06:30:26;;;;;;;5.40;2.50;;;6.50;16.80;;;;;;4995227;28;20234;-69
2023/11/03 06:32:52;;;;;;;4.60;1.83;;;6.50;18.10;;;;;;4997125;28;20277;-69
2023/11/03 06:35:17;;;;;;;3.57;1.20;;;6.50;18.90;;;;;;4997215;28;20203;-69
2023/11/03 06:37:43;;;;;;;6.33;2.43;;;6.50;18.50;;;;;;4996113;28;20211;-69
2023/11/03 06:40:11;;;;;;;3.30;2.03;;;6.50;18.70;;;;;;5004603;28;20190;-68
2023/11/03 06:42:40;;;;;;;3.40;1.70;;;6.60;18.40;;;;;;5004687;28;20287;-67
2023/11/03 06:45:09;;;;;;;2.53;1.50;;;6.70;18.30;;;;;;5004315;28;20416;-69
2023/11/03 06:47:36;;;;;;;2.60;1.60;;;6.70;17.00;;;;;;4997076;28;20422;-68
2023/11/03 06:50:03;;;;;;;3.20;1.47;;;6.70;18.40;;;;;;4995531;28;20436;-68
2023/11/03 06:52:29;;;;;;;2.90;1.87;;;6.70;18.80;;;;;;4996433;28;20442;-69
2023/11/03 06:54:55;;;;;;;3.80;1.87;;;6.80;19.40;;;;;;4994845;28;20518;-70
2023/11/03 06:57:20;;;;;;;2.33;1.33;;;6.80;20.00;;;;;;4995915;28;20550;-69
2023/11/03 06:59:46;;;;;;;4.03;1.90;;;6.90;19.40;;;;;;4996089;28;20466;-69
2023/11/03 07:02:12;;;;;;;3.90;2.30;;;6.90;19.40;;;;;;4994377;28;20194;-69
2023/11/03 07:04:37;;;;;;;3.77;2.00;;;6.90;18.80;;;;;;4995952;28;20180;-69
2023/11/03 07:07:04;;;;;;;3.57;2.40;;;6.90;19.10;;;;;;4994457;28;20263;-69
2023/11/03 07:09:31;;;;;;;4.77;2.03;;;6.90;19.90;;;;;;4994698;28;21016;-69
2023/11/03 07:11:56;;;;;;;4.00;1.50;;;7.00;18.80;;;;;;4995368;28;20969;-69
2023/11/03 07:14:23;;;;;;;4.60;2.43;;;7.00;19.20;;;;;;4995693;28;20424;-69
2023/11/03 07:16:52;;;;;;;3.93;2.47;;;7.10;17.80;;;;;;4995586;28;20237;-69
2023/11/03 07:19:20;;;;;;;6.17;2.50;;;7.10;18.00;;;;;;4995368;28;20500;-70
2023/11/03 07:21:50;;;;;;;3.93;3.20;;;7.10;17.20;;;;;;4995052;28;21019;-69
2023/11/03 07:24:16;;;;;;;3.80;2.10;;;7.10;17.70;;;;;;4994131;28;20546;-69
2023/11/03 07:26:43;;;;;;;2.27;1.40;;;7.30;17.40;;;;;;4994180;28;20428;-69
2023/11/03 07:29:09;;;;;;;3.23;1.40;;;7.40;17.40;;;;;;4995345;28;20412;-69
2023/11/03 07:31:35;;;;;;;4.33;1.97;;;7.40;17.60;;;;;;4995047;28;20810;-69
2023/11/03 07:34:01;;;;;;;4.90;2.17;;;7.50;17.50;;;;;;4994437;28;20425;-70
2023/11/03 07:36:26;;;;;;;3.80;2.47;;;7.50;17.00;;;;;;4994082;28;20892;-69
2023/11/03 07:38:52;;;;;;;6.20;1.90;;;7.60;16.50;;;;;;4994920;28;20173;-69
2023/11/03 07:41:18;;;;;;;5.70;2.70;;;7.60;16.50;;;;;;4994863;28;20200;-68
2023/11/03 07:43:43;;;;;;;2.40;1.50;;;7.60;16.60;;;;;;4995235;28;20181;-69
2023/11/03 07:46:10;;;;;;;4.10;2.20;;;7.60;16.90;;;;;;4994086;28;20189;-69
2023/11/03 07:48:37;;;;;;;4.67;2.67;;;7.60;16.70;;;;;;4994791;28;20472;-68
2023/11/03 07:51:04;;;;;;;5.33;2.20;;;7.70;16.30;;;;;;4994500;28;20484;-68
2023/11/03 07:53:30;;;;;;;3.07;1.97;;;7.70;16.40;;;;;;4993569;28;20419;-69
2023/11/03 07:55:55;;;;;;;6.00;2.13;;;7.80;16.10;;;;;;4994891;28;20511;-70
2023/11/03 07:58:21;;;;;;;6.63;2.50;;;7.90;15.90;;;;;;4993676;28;20175;-69
2023/11/03 08:00:49;;;;;;;6.77;3.67;;;7.90;13.90;;;;;;4993162;28;20682;-69
2023/11/03 08:03:15;;;;;;;6.23;2.90;;;8.00;14.50;;;;;;4993244;28;20185;-69
2023/11/03 08:05:41;;;;;;;8.50;4.60;;;8.00;13.50;;;;;;4994757;28;20433;-69
2023/11/03 08:08:07;;;;;;;5.93;3.30;;;8.10;12.40;;;;;;4994534;28;20425;-70
2023/11/03 08:10:33;;;;;;;5.00;2.93;;;8.20;12.50;;;;;;4993311;28;20270;-70
2023/11/03 08:12:58;;;;;;;3.30;1.97;;;8.30;11.90;;;;;;4994194;28;21108;-71
2023/11/03 08:15:24;;;;;;;5.83;1.83;;;8.30;8.80;;;;;;4995100;28;20180;-70
2023/11/03 08:17:50;;;;;;;2.30;1.30;;;8.30;8.70;;;;;;4995175;28;20251;-69
2023/11/03 08:20:15;;;;;;;3.00;1.50;;;8.20;6.60;;;;;;4994907;28;20582;-70
2023/11/03 08:22:42;;;;;;;5.70;2.30;;;8.30;6.60;;;;;;4996191;28;20198;-70
2023/11/03 08:25:08;;;;;;;4.27;1.80;;;8.40;6.80;;;;;;4994162;28;20188;-69
2023/11/03 08:27:34;;;;;;;6.87;1.83;;;8.60;5.80;;;;;;4993715;28;20418;-70
2023/11/03 08:30:01;;;;;;;3.40;1.97;;;8.60;4.60;;;;;;4994456;28;20418;-69
2023/11/03 08:32:27;;;;;;;7.63;1.80;;;8.50;5.00;;;;;;4993283;28;20445;-69
2023/11/03 08:34:52;;;;;;;5.87;2.07;;;8.60;6.00;;;;;;4994768;28;20499;-69
2023/11/03 08:37:18;;;;;;;4.30;1.67;;;8.70;5.80;;;;;;4995691;28;20461;-69
2023/11/03 08:39:44;;;;;;;3.57;1.60;;;8.40;5.80;;;;;;4996353;28;20186;-69
2023/11/03 08:42:09;;;;;;;5.93;1.53;;;8.50;7.50;;;;;;4994440;28;20621;-70
2023/11/03 08:44:36;;;;;;;7.70;2.30;;;8.70;5.20;;;;;;4995258;28;20204;-70
2023/11/03 08:47:02;;;;;;;4.23;2.10;;;8.80;5.20;;;;;;4994961;28;20624;-68
2023/11/03 08:49:30;;;;;;;3.87;1.50;;;9.10;4.90;;;;;;4994279;28;20414;-70
2023/11/03 08:51:55;;;;;;;4.27;1.60;;;9.00;4.80;;;;;;4993087;28;20861;-68
2023/11/03 08:54:21;;;;;;;5.73;1.67;;;9.00;4.90;;;;;;4993283;28;20520;-68
2023/11/03 08:56:47;;;;;;;5.20;1.87;;;8.90;3.10;;;;;;4995110;28;20211;-68
2023/11/03 08:59:13;;;;;;;4.80;1.80;;;8.70;4.40;;;;;;4992860;28;20179;-68
2023/11/03 09:01:42;;;;;;;5.50;1.67;;;8.90;4.10;;;;;;4992832;28;20442;-69
2023/11/03 09:04:07;;;;;;;3.20;1.40;;;8.70;5.10;;;;;;4994718;28;20596;-69
2023/11/03 09:06:33;;;;;;;4.50;2.13;;;8.70;5.10;;;;;;4994475;28;20474;-69
2023/11/03 09:08:59;;;;;;;6.70;2.40;;;8.80;6.00;;;;;;4993023;28;20246;-69
2023/11/03 09:11:25;;;;;;;3.60;1.97;;;8.90;4.10;;;;;;4992130;28;20464;-68
2023/11/03 09:13:53;;;;;;;3.70;1.97;;;9.00;4.80;;;;;;4992672;28;20270;-69
2023/11/03 09:16:20;;;;;;;2.97;1.50;;;9.10;4.40;;;;;;4994027;28;20467;-69
2023/11/03 09:18:46;;;;;;;5.67;1.67;;;9.30;5.10;;;;;;4993904;28;20796;-68
2023/11/03 09:21:12;;;;;;;5.80;2.20;;;9.30;1.30;;;;;;4994218;28;20435;-67
2023/11/03 09:23:37;;;;;;;5.73;2.03;;;9.40;1.50;;;;;;4993643;28;20784;-69
2023/11/03 09:26:04;;;;;;;4.77;1.77;;;9.50;1.60;;;;;;4992278;28;20431;-69
2023/11/03 09:28:30;;;;;;;5.20;2.57;;;9.60;1.10;;;;;;4993618;28;20549;-69
2023/11/03 09:30:57;;;;;;;3.23;1.70;;;9.80;1.00;;;;;;4992203;28;20418;-69
2023/11/03 09:33:22;;;;;;;6.37;2.30;;;9.80;1.00;;;;;;4993753;28;20542;-68
2023/11/03 09:35:48;;;;;;;4.20;1.30;;;9.80;1.00;;;;;;4992320;28;20430;-69
2023/11/03 09:38:19;;;;;;;3.03;1.37;;;9.80;1.00;;;;;;4992282;28;20211;-69
2023/11/03 09:40:48;;;;;;;2.83;1.60;;;9.70;1.00;;;;;;4992319;28;20184;-69
2023/11/03 09:43:14;;;;;;;3.60;1.33;;;9.40;1.00;;;;;;4993419;28;20427;-69
2023/11/03 09:45:41;;;;;;;2.93;1.40;;;9.60;1.00;;;;;;4992287;28;20422;-69
2023/11/03 09:48:08;;;;;;;2.90;1.70;;;9.50;1.00;;;;;;4992498;28;20187;-70
2023/11/03 09:50:36;;;;;;;5.07;2.60;;;9.70;1.00;;;;;;4993116;28;20424;-68
2023/11/03 09:53:07;;;;;;;6.90;1.63;;;9.80;1.00;;;;;;4993240;28;20443;-69
2023/11/03 09:55:36;;;;;;;9.60;2.40;;;9.60;1.00;;;;;;4993001;28;20427;-69
2023/11/03 09:58:02;;;;;;;5.00;1.23;;;9.40;1.00;;;;;;4993615;28;20470;-68
2023/11/03 10:00:29;;;;;;;2.70;1.33;;;9.20;1.00;;;;;;4992793;28;20418;-68
2023/11/03 10:02:54;;;;;;;4.53;2.20;;;9.20;1.00;;;;;;4993268;28;20929;-69
2023/11/03 10:05:23;;;;;;;2.47;1.20;;;9.30;1.00;;;;;;4993104;28;20450;-71
2023/11/03 10:07:52;;;;;;;3.90;1.80;;;9.20;1.00;;;;;;4993627;28;20180;-69
2023/11/03 10:10:18;;;;;;;4.57;1.60;;;9.20;1.00;;;;;;4992698;28;20883;-68
2023/11/03 10:12:43;;;;;;;5.07;2.03;;;9.20;1.00;;;;;;4992830;28;20470;-68
2023/11/03 10:15:13;;;;;;;4.00;1.23;;;9.20;1.00;;;;;;4992917;28;20574;-69
2023/11/03 10:17:40;;;;;;;2.13;1.00;;;9.40;1.00;;;;;;4993047;28;20309;-69
2023/11/03 10:20:11;;;;;;;2.70;1.43;;;9.50;1.00;;;;;;4993171;28;20781;-69
2023/11/03 10:22:39;;;;;;;5.03;1.70;;;9.70;1.00;;;;;;4991753;28;20858;-69
2023/11/03 10:25:07;;;;;;;3.83;1.03;;;9.80;1.00;;;;;;4991580;28;20482;-69
2023/11/03 10:27:33;;;;;;;2.30;1.10;;;9.70;1.00;;;;;;4991156;28;20453;-69
2023/11/03 10:29:59;;;;;;;3.87;1.40;;;9.70;1.00;;;;;;4993158;28;20420;-69
2023/11/03 10:32:25;;;;;;;4.67;1.27;;;9.70;1.00;;;;;;4992470;28;20196;-69
2023/11/03 10:34:54;;;;;;;3.20;0.83;;;9.90;1.00;;;;;;4991607;28;20434;-69
2023/11/03 10:37:21;;;;;;;3.60;1.40;;;10.10;1.00;;;;;;4992771;28;20200;-69
2023/11/03 10:39:47;;;;;;;14.80;1.43;;;10.30;1.00;;;;;;4992877;28;20490;-69
2023/11/03 10:42:15;;;;;;;3.40;1.03;;;10.40;1.00;;;;;;4992529;28;20581;-68
2023/11/03 10:44:41;;;;;;;1.83;1.13;;;10.40;1.00;;;;;;4991517;28;20211;-68
2023/11/03 10:47:16;;;;;;;2.00;1.03;;;10.40;1.00;;;;;;4992795;28;20514;-68
2023/11/03 10:49:46;;;;;;;2.40;1.00;;;10.40;1.00;;;;;;4991506;28;20436;-68
2023/11/03 10:52:23;;;;;;;2.80;1.47;;;10.20;1.00;;;;;;4992333;28;20443;-68
2023/11/03 10:55:08;;;;;;;2.37;1.00;;;10.40;1.00;;;;;;4991728;28;20415;-68
2023/11/03 10:57:33;;;;;;;1.90;0.90;;;10.10;1.00;;;;;;4992530;28;20455;-69
2023/11/03 11:00:09;;;;;;;2.00;0.80;;;9.90;1.00;;;;;;4993270;28;20449;-69
2023/11/03 11:02:51;;;;;;;2.07;0.83;;;9.90;1.00;;;;;;4993957;28;20243;-69
2023/11/03 11:05:26;;;;;;;2.83;1.17;;;9.90;1.00;;;;;;4992789;28;20414;-69
2023/11/03 11:08:01;;;;;;;2.40;1.17;;;9.90;1.00;;;;;;4992309;28;20415;-69
2023/11/03 11:10:45;;;;;;;2.67;0.93;;;10.00;1.00;;;;;;4990649;28;20457;-68
2023/11/03 11:13:19;;;;;;;7.30;1.40;;;10.00;1.00;;;;;;4992336;28;20446;-68
2023/11/03 11:15:57;;;;;;;2.53;1.13;;;10.10;1.00;;;;;;4995762;28;20419;-69
2023/11/03 11:18:24;;;;;;;3.20;1.03;;;10.10;1.00;;;;;;4995588;28;20419;-69
2023/11/03 11:20:54;;;;;;;2.83;1.03;;;10.20;1.00;;;;;;4995381;28;20418;-69
2023/11/03 11:23:23;;;;;;;3.40;1.07;;;10.10;1.00;;;;;;4995735;28;20408;-69
2023/11/03 11:25:52;;;;;;;2.37;1.10;;;10.20;1.00;;;;;;4995465;28;20422;-68
2023/11/03 11:28:32;;;;;;;2.83;1.10;;;10.20;1.00;;;;;;4995905;28;21014;-69
2023/11/03 11:30:57;;;;;;;5.50;1.10;;;9.90;1.00;;;;;;4994145;28;20808;-69
2023/11/03 11:33:28;;;;;;;2.47;1.00;;;9.90;1.00;;;;;;4995851;28;20415;-69
2023/11/03 11:35:54;;;;;;;3.70;1.30;;;9.90;1.00;;;;;;4995809;28;20226;-69
2023/11/03 11:38:20;;;;;;;1.90;1.00;;;9.90;1.00;;;;;;4995992;28;20446;-70
2023/11/03 11:40:46;;;;;;;6.70;1.57;;;10.10;1.00;;;;;;4995757;28;20419;-69
2023/11/03 11:43:12;;;;;;;2.40;0.93;;;10.20;1.00;;;;;;4995860;28;20212;-69
2023/11/03 11:45:42;;;;;;;2.67;1.20;;;10.10;1.00;;;;;;4995596;28;20502;-69
2023/11/03 11:48:14;;;;;;;7.10;2.50;;;10.10;1.00;;;;;;4995244;28;20408;-68
2023/11/03 11:50:41;;;;;;;4.53;1.53;;;10.10;1.00;;;;;;4994924;28;20416;-69
2023/11/03 11:53:08;;;;;;;1.83;0.97;;;10.30;1.00;;;;;;4995325;28;20419;-69
2023/11/03 11:55:35;;;;;;;2.50;1.17;;;10.40;1.00;;;;;;4993874;28;20929;-71
2023/11/03 11:58:02;;;;;;;2.07;1.10;;;10.70;1.00;;;;;;4994981;28;20490;-69
2023/11/03 12:00:27;;;;;;;2.57;1.00;;;10.50;1.00;;;;;;4995703;28;20939;-68
2023/11/03 12:02:53;;;;;;;1.93;0.70;;;10.60;1.00;;;;;;4996510;28;20526;-69
2023/11/03 12:05:20;;;;;;;3.40;0.90;;;10.60;1.00;;;;;;4994709;28;20539;-69
2023/11/03 12:07:46;;;;;;;2.03;0.83;;;10.60;1.00;;;;;;4995781;28;20169;-69
2023/11/03 12:10:13;;;;;;;2.67;1.00;;;10.60;1.00;;;;;;4994063;28;20967;-69
2023/11/03 12:12:39;;;;;;;4.10;1.13;;;10.40;1.00;;;;;;4994149;28;20468;-68
2023/11/03 12:15:05;;;;;;;2.07;0.93;;;10.30;1.00;;;;;;4996019;28;20494;-69
2023/11/03 12:17:31;;;;;;;1.80;0.70;;;10.20;1.00;;;;;;4995345;28;20579;-69
2023/11/03 12:19:57;;;;;;;2.03;0.80;;;10.10;1.00;;;;;;4993960;28;21007;-68
2023/11/03 12:22:24;;;;;;;3.67;1.43;;;10.40;1.00;;;;;;4995252;28;20188;-68
2023/11/03 12:24:53;;;;;;;1.90;1.13;;;10.40;1.00;;;;;;4993485;28;20678;-68
2023/11/03 12:27:22;;;;;;;2.23;1.00;;;10.40;1.00;;;;;;4994167;28;20416;-69
2023/11/03 12:29:48;;;;;;;12.00;1.53;;;10.30;1.00;;;;;;4994593;28;20973;-69
2023/11/03 12:32:14;;;;;;;2.00;0.67;;;10.30;1.00;;;;;;4994318;28;20522;-70
2023/11/03 12:34:45;;;;;;;3.00;1.30;;;10.30;1.00;;;;;;4994835;28;20525;-70
2023/11/03 12:37:11;;;;;;;2.00;1.00;;;10.40;1.00;;;;;;4994336;28;20461;-68
2023/11/03 12:40:06;;;;;;;4.23;1.00;;;10.40;1.00;;;;;;4994423;28;20411;-69
2023/11/03 12:42:41;;;;;;;2.57;1.40;;;10.40;1.00;;;;;;4985485;28;20468;-70
2023/11/03 12:45:11;;;;;;;2.10;1.00;;;10.50;1.00;;;;;;4993233;28;20426;-69
2023/11/03 12:47:38;;;;;;;2.27;1.07;;;10.60;1.00;;;;;;4994712;28;20442;-69
2023/11/03 12:50:19;;;;;;;1.90;1.00;;;10.60;1.00;;;;;;4994134;28;20412;-68
2023/11/03 12:52:50;;;;;;;3.83;1.03;;;10.70;1.00;;;;;;5009274;28;20479;-69
2023/11/03 12:55:23;;;;;;;2.20;0.90;;;10.70;1.00;;;;;;4994106;28;20419;-70